EPWAEPKK

Guest
Details From EPWA - Warsaw Okecie - Frederic Chopin
To EPKK - Balice
Flight Number -
Tags Generated
Created
Modified
Stats Distance 134 nm / 248 km
Max Altitude 0 ft / 0 m
Waypoints 3
Social Downloads 3
Likes 0
Share VATSIM

Download

Looking for another format? Having issues loading an existing format? Contact us
Advertisement - Login to hide

Notes

Generated

Route

EPWA R1855 EPKK

ID Type Via Altitude Latitude Longitude Leg Dist Tot Dist Heading (true) Name
O EPWA APT - 0 ft / 0 m 52.17148˚ 20.94671˚ - 0 nm - -
R1855 FIX - 0 ft / 0 m 50.07979˚ 19.79965˚ 132 nm 132 nm 199° / 199° -
O EPKK APT - 0 ft / 0 m 50.07540˚ 19.76809˚ 1 nm 134 nm 258° / 258° -

Altitude Profile

Advertisement - Login to hide

EPWA

Details ICAO EPWA (WAW)
Name WARSZAWA Okecie
Region Poland
Timezone Europe/Warsaw (UTC+1.0)
Stats Elevation 328 ft / 100 m (AMSL)
Location 52.165091° 20.966923°
Runways 2
Magnetic Variation 5.802° E

METAR

EPWA 162030Z 21003KT 7000 BKN021 01/M01 Q1008 NOSIG

Decode

TAF

TAF AMD EPWA 161829Z 1618/1718 26006KT 7000 BKN020 BECMG 1619/1621 BKN010 TEMPO 1619/1709 4000 BR BKN006 PROB40 TEMPO 1621/1709 2000 -SN -SNRA BR BKN003 BECMG 1708/1710 SCT020 BECMG 1716/1718 2000 BR

Decode

Departure Runways

ID Width Length Bearing (true) Bearing (mag) Surface Threshold Offset Overrun Length
11 164 ft / 50 m 9,163 ft / 2,793 m 114.64° 108.84° Asphalt 0 ft / 0 m 476 ft / 145 m
15 197 ft / 60 m 12,112 ft / 3,692 m 151.85° 146.05° Asphalt 0 ft / 0 m 0 ft / 0 m
29 164 ft / 50 m 9,163 ft / 2,793 m 294.67° 288.87° Asphalt 1,608 ft / 490 m 0 ft / 0 m
33 197 ft / 60 m 12,112 ft / 3,692 m 331.87° 326.07° Asphalt 0 ft / 0 m 0 ft / 0 m

EPKK

Details ICAO EPKK (KRK)
Name BALICE
Region Poland
Timezone Europe/Warsaw (UTC+1.0)
Stats Elevation 791 ft / 241 m (AMSL)
Location 50.077821° 19.785503°
Runways 1
Magnetic Variation 5.203° E

METAR

EPKK 162030Z 27003KT 190V300 2900 BR FEW039 OVC046 00/M02 Q1011

Decode

TAF

TAF AMD EPKK 161901Z 1619/1718 23004KT 4000 BR BKN033 TEMPO 1619/1709 2000 -SN BR BKN008 BKN020 PROB40 1619/1707 1200 -SN BR BKN003 BKN008 TEMPO 1709/1715 8000 PROB40 1715/1718 2000 -SN BR BKN004 BKN008

Decode

Destination Runways

ID Width Length Bearing (true) Bearing (mag) Surface Threshold Offset Overrun Length
07 197 ft / 60 m 8,343 ft / 2,543 m 77.75° 72.55° Concrete 0 ft / 0 m 0 ft / 0 m
25 197 ft / 60 m 8,343 ft / 2,543 m 257.77° 252.57° Concrete 784 ft / 239 m 0 ft / 0 m

Approach Navaids

Runway Type Ident Frequency Range Bearing (true) Bearing (mag) Slope Elevation
25 Localiser KRW 110.30 MHz 18 nm / 33 km 257.73° 252.53° - 791 ft / 241 m (AMSL)
25 Glidescope KRW 110.30 MHz 10 nm / 19 km 257.76° 252.56° 3.00° 791 ft / 241 m (AMSL)
25 DME KRW 110.30 MHz 18 nm / 33 km - - - 827 ft / 252 m (AMSL)

Popular Alternatives